sensor_id;sensor_type;location;lat;lon;timestamp;temperature;humidity
64833;HTU21D;51290;45.060;38.948;2023-05-10T00:01:38;10.90;83.52
64833;HTU21D;51290;45.060;38.948;2023-05-10T00:04:03;10.88;83.55
64833;HTU21D;51290;45.060;38.948;2023-05-10T00:06:29;10.87;83.52
64833;HTU21D;51290;45.060;38.948;2023-05-10T00:08:55;10.83;83.49
64833;HTU21D;51290;45.060;38.948;2023-05-10T00:11:21;10.81;83.48
64833;HTU21D;51290;45.060;38.948;2023-05-10T00:13:47;10.75;83.52
64833;HTU21D;51290;45.060;38.948;2023-05-10T00:16:13;10.73;83.53
64833;HTU21D;51290;45.060;38.948;2023-05-10T00:18:39;10.70;83.58
64833;HTU21D;51290;45.060;38.948;2023-05-10T00:21:05;10.67;83.61
64833;HTU21D;51290;45.060;38.948;2023-05-10T00:23:31;10.66;83.65
64833;HTU21D;51290;45.060;38.948;2023-05-10T00:25:57;10.65;83.66
64833;HTU21D;51290;45.060;38.948;2023-05-10T00:28:23;10.62;83.65
64833;HTU21D;51290;45.060;38.948;2023-05-10T00:30:48;10.60;83.65
64833;HTU21D;51290;45.060;38.948;2023-05-10T00:33:14;10.58;83.64
64833;HTU21D;51290;45.060;38.948;2023-05-10T00:35:41;10.56;83.67
64833;HTU21D;51290;45.060;38.948;2023-05-10T00:38:08;10.54;83.70
64833;HTU21D;51290;45.060;38.948;2023-05-10T00:40:35;10.54;83.73
64833;HTU21D;51290;45.060;38.948;2023-05-10T00:43:04;10.54;83.73
64833;HTU21D;51290;45.060;38.948;2023-05-10T00:45:31;10.53;83.75
64833;HTU21D;51290;45.060;38.948;2023-05-10T00:47:58;10.53;83.76
64833;HTU21D;51290;45.060;38.948;2023-05-10T00:50:25;10.54;83.76
64833;HTU21D;51290;45.060;38.948;2023-05-10T00:52:51;10.54;83.72
64833;HTU21D;51290;45.060;38.948;2023-05-10T00:55:17;10.54;83.72
64833;HTU21D;51290;45.060;38.948;2023-05-10T00:57:44;10.55;83.75
64833;HTU21D;51290;45.060;38.948;2023-05-10T01:00:10;10.57;83.76
64833;HTU21D;51290;45.060;38.948;2023-05-10T01:02:37;10.59;83.69
64833;HTU21D;51290;45.060;38.948;2023-05-10T01:05:03;10.59;83.67
64833;HTU21D;51290;45.060;38.948;2023-05-10T01:07:29;10.59;83.66
64833;HTU21D;51290;45.060;38.948;2023-05-10T01:09:55;10.59;83.65
64833;HTU21D;51290;45.060;38.948;2023-05-10T01:12:21;10.58;83.65
64833;HTU21D;51290;45.060;38.948;2023-05-10T01:14:47;10.58;83.68
64833;HTU21D;51290;45.060;38.948;2023-05-10T01:17:13;10.59;83.69
64833;HTU21D;51290;45.060;38.948;2023-05-10T01:19:40;10.59;83.59
64833;HTU21D;51290;45.060;38.948;2023-05-10T01:27:11;10.57;83.57
64833;HTU21D;51290;45.060;38.948;2023-05-10T01:35:12;10.55;83.46
64833;HTU21D;51290;45.060;38.948;2023-05-10T01:40:31;10.53;83.51
64833;HTU21D;51290;45.060;38.948;2023-05-10T01:43:01;10.53;83.51
64833;HTU21D;51290;45.060;38.948;2023-05-10T01:48:36;10.52;83.62
64833;HTU21D;51290;45.060;38.948;2023-05-10T01:51:03;10.49;83.46
64833;HTU21D;51290;45.060;38.948;2023-05-10T01:53:31;10.46;83.45
64833;HTU21D;51290;45.060;38.948;2023-05-10T01:55:57;10.43;83.55
64833;HTU21D;51290;45.060;38.948;2023-05-10T01:58:27;10.44;83.62
64833;HTU21D;51290;45.060;38.948;2023-05-10T02:00:53;10.45;83.65
64833;HTU21D;51290;45.060;38.948;2023-05-10T02:03:23;10.48;83.65
64833;HTU21D;51290;45.060;38.948;2023-05-10T02:05:49;10.50;83.62
64833;HTU21D;51290;45.060;38.948;2023-05-10T02:08:16;10.51;83.61
64833;HTU21D;51290;45.060;38.948;2023-05-10T02:10:43;10.53;83.59
64833;HTU21D;51290;45.060;38.948;2023-05-10T02:13:10;10.54;83.56
64833;HTU21D;51290;45.060;38.948;2023-05-10T02:15:36;10.54;83.55
64833;HTU21D;51290;45.060;38.948;2023-05-10T02:18:04;10.56;83.54
64833;HTU21D;51290;45.060;38.948;2023-05-10T02:20:31;10.57;83.53
64833;HTU21D;51290;45.060;38.948;2023-05-10T02:22:57;10.58;83.52
64833;HTU21D;51290;45.060;38.948;2023-05-10T02:25:23;10.59;83.47
64833;HTU21D;51290;45.060;38.948;2023-05-10T02:27:51;10.58;83.43
64833;HTU21D;51290;45.060;38.948;2023-05-10T02:30:18;10.59;83.43
64833;HTU21D;51290;45.060;38.948;2023-05-10T02:32:44;10.58;83.45
64833;HTU21D;51290;45.060;38.948;2023-05-10T02:35:10;10.59;83.50
64833;HTU21D;51290;45.060;38.948;2023-05-10T02:37:36;10.60;83.50
64833;HTU21D;51290;45.060;38.948;2023-05-10T02:40:03;10.63;83.49
64833;HTU21D;51290;45.060;38.948;2023-05-10T02:42:31;10.64;83.45
64833;HTU21D;51290;45.060;38.948;2023-05-10T02:45:01;10.66;83.45
64833;HTU21D;51290;45.060;38.948;2023-05-10T02:47:31;10.69;83.41
64833;HTU21D;51290;45.060;38.948;2023-05-10T02:49:57;10.70;83.35
64833;HTU21D;51290;45.060;38.948;2023-05-10T02:52:27;10.70;83.32
64833;HTU21D;51290;45.060;38.948;2023-05-10T02:54:58;10.71;83.28
64833;HTU21D;51290;45.060;38.948;2023-05-10T02:57:26;10.71;83.25
64833;HTU21D;51290;45.060;38.948;2023-05-10T02:59:53;10.72;83.20
64833;HTU21D;51290;45.060;38.948;2023-05-10T03:02:19;10.71;83.20
64833;HTU21D;51290;45.060;38.948;2023-05-10T03:04:45;10.69;83.21
64833;HTU21D;51290;45.060;38.948;2023-05-10T03:07:11;10.69;83.20
64833;HTU21D;51290;45.060;38.948;2023-05-10T03:09:37;10.69;83.20
64833;HTU21D;51290;45.060;38.948;2023-05-10T03:12:05;10.69;83.24
64833;HTU21D;51290;45.060;38.948;2023-05-10T03:19:55;10.72;83.16
64833;HTU21D;51290;45.060;38.948;2023-05-10T03:22:26;10.72;83.19
64833;HTU21D;51290;45.060;38.948;2023-05-10T03:24:56;10.72;83.21
64833;HTU21D;51290;45.060;38.948;2023-05-10T03:27:25;10.75;83.23
64833;HTU21D;51290;45.060;38.948;2023-05-10T03:29:52;10.77;83.19
64833;HTU21D;51290;45.060;38.948;2023-05-10T03:32:18;10.79;83.13
64833;HTU21D;51290;45.060;38.948;2023-05-10T03:34:44;10.81;83.13
64833;HTU21D;51290;45.060;38.948;2023-05-10T03:37:09;10.84;83.11
64833;HTU21D;51290;45.060;38.948;2023-05-10T03:39:35;10.89;83.13
64833;HTU21D;51290;45.060;38.948;2023-05-10T03:42:03;10.92;83.05
64833;HTU21D;51290;45.060;38.948;2023-05-10T03:44:29;10.94;83.07
64833;HTU21D;51290;45.060;38.948;2023-05-10T03:46:55;11.00;83.07
64833;HTU21D;51290;45.060;38.948;2023-05-10T03:49:23;11.05;83.07
64833;HTU21D;51290;45.060;38.948;2023-05-10T03:51:49;11.11;82.97
64833;HTU21D;51290;45.060;38.948;2023-05-10T03:54:15;11.18;82.88
64833;HTU21D;51290;45.060;38.948;2023-05-10T03:56:40;11.19;82.79
64833;HTU21D;51290;45.060;38.948;2023-05-10T03:59:06;11.23;82.83
64833;HTU21D;51290;45.060;38.948;2023-05-10T04:01:34;11.25;82.85
64833;HTU21D;51290;45.060;38.948;2023-05-10T04:04:00;11.28;82.78
64833;HTU21D;51290;45.060;38.948;2023-05-10T04:06:26;11.31;82.65
64833;HTU21D;51290;45.060;38.948;2023-05-10T04:08:53;11.31;82.55
64833;HTU21D;51290;45.060;38.948;2023-05-10T04:11:19;11.31;82.53
64833;HTU21D;51290;45.060;38.948;2023-05-10T04:13:47;11.31;82.49
64833;HTU21D;51290;45.060;38.948;2023-05-10T04:16:13;11.32;82.46
64833;HTU21D;51290;45.060;38.948;2023-05-10T04:18:38;11.32;82.44
64833;HTU21D;51290;45.060;38.948;2023-05-10T04:21:10;11.33;82.43
64833;HTU21D;51290;45.060;38.948;2023-05-10T04:23:36;11.30;82.41
64833;HTU21D;51290;45.060;38.948;2023-05-10T04:26:02;11.29;82.30
64833;HTU21D;51290;45.060;38.948;2023-05-10T04:28:28;11.30;82.29
64833;HTU21D;51290;45.060;38.948;2023-05-10T04:31:00;11.28;82.32
64833;HTU21D;51290;45.060;38.948;2023-05-10T04:33:25;11.28;82.31
64833;HTU21D;51290;45.060;38.948;2023-05-10T04:35:51;11.28;82.34
64833;HTU21D;51290;45.060;38.948;2023-05-10T04:38:17;11.30;82.39
64833;HTU21D;51290;45.060;38.948;2023-05-10T04:40:43;11.34;82.34
64833;HTU21D;51290;45.060;38.948;2023-05-10T04:43:08;11.40;82.38
64833;HTU21D;51290;45.060;38.948;2023-05-10T04:45:34;11.49;82.42
64833;HTU21D;51290;45.060;38.948;2023-05-10T04:48:00;11.61;82.42
64833;HTU21D;51290;45.060;38.948;2023-05-10T04:50:25;11.75;82.35
64833;HTU21D;51290;45.060;38.948;2023-05-10T04:52:51;11.88;82.14
64833;HTU21D;51290;45.060;38.948;2023-05-10T04:55:17;11.96;81.85
64833;HTU21D;51290;45.060;38.948;2023-05-10T04:57:43;12.04;81.78
64833;HTU21D;51290;45.060;38.948;2023-05-10T05:00:09;12.10;81.47
64833;HTU21D;51290;45.060;38.948;2023-05-10T05:02:34;12.08;81.21
64833;HTU21D;51290;45.060;38.948;2023-05-10T05:05:01;12.08;81.22
64833;HTU21D;51290;45.060;38.948;2023-05-10T05:07:27;12.06;81.14
64833;HTU21D;51290;45.060;38.948;2023-05-10T05:09:52;12.03;80.97
64833;HTU21D;51290;45.060;38.948;2023-05-10T05:12:18;11.93;81.03
64833;HTU21D;51290;45.060;38.948;2023-05-10T05:14:44;11.82;80.94
64833;HTU21D;51290;45.060;38.948;2023-05-10T05:17:10;11.71;80.95
64833;HTU21D;51290;45.060;38.948;2023-05-10T05:19:35;11.59;81.00
64833;HTU21D;51290;45.060;38.948;2023-05-10T05:22:02;11.51;81.27
64833;HTU21D;51290;45.060;38.948;2023-05-10T05:24:28;11.48;81.55
64833;HTU21D;51290;45.060;38.948;2023-05-10T05:26:53;11.52;81.61
64833;HTU21D;51290;45.060;38.948;2023-05-10T05:29:19;11.54;81.59
64833;HTU21D;51290;45.060;38.948;2023-05-10T05:31:45;11.58;81.62
64833;HTU21D;51290;45.060;38.948;2023-05-10T05:34:11;11.62;81.47
64833;HTU21D;51290;45.060;38.948;2023-05-10T05:36:37;11.69;81.39
64833;HTU21D;51290;45.060;38.948;2023-05-10T05:39:06;11.75;81.32
64833;HTU21D;51290;45.060;38.948;2023-05-10T05:41:32;11.74;80.94
64833;HTU21D;51290;45.060;38.948;2023-05-10T05:43:58;11.66;80.61
64833;HTU21D;51290;45.060;38.948;2023-05-10T05:46:25;11.53;80.68
64833;HTU21D;51290;45.060;38.948;2023-05-10T05:48:51;11.43;80.70
64833;HTU21D;51290;45.060;38.948;2023-05-10T05:51:17;11.32;80.75
64833;HTU21D;51290;45.060;38.948;2023-05-10T05:53:42;11.26;80.94
64833;HTU21D;51290;45.060;38.948;2023-05-10T05:56:08;11.22;81.14
64833;HTU21D;51290;45.060;38.948;2023-05-10T05:58:35;11.23;81.36
64833;HTU21D;51290;45.060;38.948;2023-05-10T06:01:00;11.28;81.45
64833;HTU21D;51290;45.060;38.948;2023-05-10T06:03:26;11.39;81.46
64833;HTU21D;51290;45.060;38.948;2023-05-10T06:05:52;11.51;81.44
64833;HTU21D;51290;45.060;38.948;2023-05-10T06:08:18;11.62;81.19
64833;HTU21D;51290;45.060;38.948;2023-05-10T06:10:44;11.69;80.81
64833;HTU21D;51290;45.060;38.948;2023-05-10T06:13:10;11.72;80.69
64833;HTU21D;51290;45.060;38.948;2023-05-10T06:15:36;11.75;80.70
64833;HTU21D;51290;45.060;38.948;2023-05-10T06:18:02;11.78;80.67
64833;HTU21D;51290;45.060;38.948;2023-05-10T06:20:28;11.81;80.47
64833;HTU21D;51290;45.060;38.948;2023-05-10T06:22:53;11.83;80.54
64833;HTU21D;51290;45.060;38.948;2023-05-10T06:25:19;11.88;80.61
64833;HTU21D;51290;45.060;38.948;2023-05-10T06:27:45;11.92;80.59
64833;HTU21D;51290;45.060;38.948;2023-05-10T06:30:10;12.02;80.65
64833;HTU21D;51290;45.060;38.948;2023-05-10T06:32:38;12.15;80.61
64833;HTU21D;51290;45.060;38.948;2023-05-10T06:35:04;12.28;80.41
64833;HTU21D;51290;45.060;38.948;2023-05-10T06:37:30;12.33;79.97
64833;HTU21D;51290;45.060;38.948;2023-05-10T06:39:56;12.34;79.67
64833;HTU21D;51290;45.060;38.948;2023-05-10T06:42:21;12.32;79.58
64833;HTU21D;51290;45.060;38.948;2023-05-10T06:44:47;12.29;79.55
64833;HTU21D;51290;45.060;38.948;2023-05-10T06:47:13;12.29;79.69
64833;HTU21D;51290;45.060;38.948;2023-05-10T06:49:39;12.34;79.75
64833;HTU21D;51290;45.060;38.948;2023-05-10T06:52:05;12.44;79.85
64833;HTU21D;51290;45.060;38.948;2023-05-10T06:54:31;12.67;79.94
64833;HTU21D;51290;45.060;38.948;2023-05-10T06:56:56;13.05;79.96
64833;HTU21D;51290;45.060;38.948;2023-05-10T06:59:22;13.49;79.40
64833;HTU21D;51290;45.060;38.948;2023-05-10T07:01:48;13.90;78.74
64833;HTU21D;51290;45.060;38.948;2023-05-10T07:04:14;14.20;77.79
64833;HTU21D;51290;45.060;38.948;2023-05-10T07:06:39;14.38;77.18
64833;HTU21D;51290;45.060;38.948;2023-05-10T07:09:05;14.47;76.92
64833;HTU21D;51290;45.060;38.948;2023-05-10T07:11:31;14.58;76.92
64833;HTU21D;51290;45.060;38.948;2023-05-10T07:13:56;14.75;76.96
64833;HTU21D;51290;45.060;38.948;2023-05-10T07:16:22;14.92;76.73
64833;HTU21D;51290;45.060;38.948;2023-05-10T07:18:48;14.94;76.36
64833;HTU21D;51290;45.060;38.948;2023-05-10T07:21:15;14.85;75.87
64833;HTU21D;51290;45.060;38.948;2023-05-10T07:23:41;14.77;75.96
64833;HTU21D;51290;45.060;38.948;2023-05-10T07:26:07;14.64;75.90
64833;HTU21D;51290;45.060;38.948;2023-05-10T07:28:32;14.50;76.05
64833;HTU21D;51290;45.060;38.948;2023-05-10T07:30:58;14.36;76.19
64833;HTU21D;51290;45.060;38.948;2023-05-10T07:33:24;14.24;76.38
64833;HTU21D;51290;45.060;38.948;2023-05-10T07:35:50;14.17;76.54
64833;HTU21D;51290;45.060;38.948;2023-05-10T07:38:15;14.15;76.75
64833;HTU21D;51290;45.060;38.948;2023-05-10T07:40:42;14.26;76.98
64833;HTU21D;51290;45.060;38.948;2023-05-10T07:43:08;14.44;76.99
64833;HTU21D;51290;45.060;38.948;2023-05-10T07:45:35;14.64;76.46
64833;HTU21D;51290;45.060;38.948;2023-05-10T07:48:01;14.85;76.23
64833;HTU21D;51290;45.060;38.948;2023-05-10T07:50:27;15.09;76.06
64833;HTU21D;51290;45.060;38.948;2023-05-10T07:52:53;15.34;75.60
64833;HTU21D;51290;45.060;38.948;2023-05-10T07:55:20;15.40;74.80
64833;HTU21D;51290;45.060;38.948;2023-05-10T07:57:46;15.32;74.75
64833;HTU21D;51290;45.060;38.948;2023-05-10T08:00:13;15.28;74.28
64833;HTU21D;51290;45.060;38.948;2023-05-10T08:02:42;15.27;74.28
64833;HTU21D;51290;45.060;38.948;2023-05-10T08:05:08;15.21;73.68
64833;HTU21D;51290;45.060;38.948;2023-05-10T08:07:34;14.97;73.07
64833;HTU21D;51290;45.060;38.948;2023-05-10T08:10:00;14.68;72.35
64833;HTU21D;51290;45.060;38.948;2023-05-10T08:12:26;14.45;72.81
64833;HTU21D;51290;45.060;38.948;2023-05-10T08:14:52;14.38;73.54
64833;HTU21D;51290;45.060;38.948;2023-05-10T08:17:18;14.38;73.88
64833;HTU21D;51290;45.060;38.948;2023-05-10T08:19:46;14.40;73.59
64833;HTU21D;51290;45.060;38.948;2023-05-10T08:22:12;14.48;73.69
64833;HTU21D;51290;45.060;38.948;2023-05-10T08:24:38;14.58;73.70
64833;HTU21D;51290;45.060;38.948;2023-05-10T08:27:08;14.68;73.58
64833;HTU21D;51290;45.060;38.948;2023-05-10T08:29:34;14.80;73.77
64833;HTU21D;51290;45.060;38.948;2023-05-10T08:32:00;15.01;73.60
64833;HTU21D;51290;45.060;38.948;2023-05-10T08:34:27;15.08;72.83
64833;HTU21D;51290;45.060;38.948;2023-05-10T08:36:53;14.98;72.55
64833;HTU21D;51290;45.060;38.948;2023-05-10T08:39:18;128.86;0.00
64833;HTU21D;51290;45.060;38.948;2023-05-10T08:41:46;14.92;73.27
64833;HTU21D;51290;45.060;38.948;2023-05-10T08:44:13;15.08;73.58
64833;HTU21D;51290;45.060;38.948;2023-05-10T08:46:41;15.27;73.16
64833;HTU21D;51290;45.060;38.948;2023-05-10T08:49:13;15.46;73.00
64833;HTU21D;51290;45.060;38.948;2023-05-10T08:51:44;15.73;72.81
64833;HTU21D;51290;45.060;38.948;2023-05-10T08:54:12;15.90;70.84
64833;HTU21D;51290;45.060;38.948;2023-05-10T08:56:38;15.91;71.13
64833;HTU21D;51290;45.060;38.948;2023-05-10T08:59:05;16.00;71.53
64833;HTU21D;51290;45.060;38.948;2023-05-10T09:01:32;16.08;71.47
64833;HTU21D;51290;45.060;38.948;2023-05-10T09:03:59;16.01;71.29
64833;HTU21D;51290;45.060;38.948;2023-05-10T09:06:25;15.98;71.48
64833;HTU21D;51290;45.060;38.948;2023-05-10T09:08:52;15.99;70.97
64833;HTU21D;51290;45.060;38.948;2023-05-10T09:11:20;15.99;71.26
64833;HTU21D;51290;45.060;38.948;2023-05-10T09:13:48;16.00;71.04
64833;HTU21D;51290;45.060;38.948;2023-05-10T09:16:15;16.04;71.29
64833;HTU21D;51290;45.060;38.948;2023-05-10T09:18:41;16.10;70.70
64833;HTU21D;51290;45.060;38.948;2023-05-10T09:21:08;15.95;69.13
64833;HTU21D;51290;45.060;38.948;2023-05-10T09:23:35;15.60;68.89
64833;HTU21D;51290;45.060;38.948;2023-05-10T09:26:05;15.31;69.62
64833;HTU21D;51290;45.060;38.948;2023-05-10T09:28:35;15.10;69.93
64833;HTU21D;51290;45.060;38.948;2023-05-10T09:31:15;14.81;69.81
64833;HTU21D;51290;45.060;38.948;2023-05-10T09:33:46;14.54;69.71
64833;HTU21D;51290;45.060;38.948;2023-05-10T09:36:12;14.36;70.48
64833;HTU21D;51290;45.060;38.948;2023-05-10T09:38:49;14.32;70.85
64833;HTU21D;51290;45.060;38.948;2023-05-10T09:41:22;14.19;70.71
64833;HTU21D;51290;45.060;38.948;2023-05-10T09:43:49;14.05;71.09
64833;HTU21D;51290;45.060;38.948;2023-05-10T09:46:15;13.96;71.46
64833;HTU21D;51290;45.060;38.948;2023-05-10T09:48:46;13.92;71.75
64833;HTU21D;51290;45.060;38.948;2023-05-10T09:51:22;13.98;72.35
64833;HTU21D;51290;45.060;38.948;2023-05-10T09:54:10;14.24;72.68
64833;HTU21D;51290;45.060;38.948;2023-05-10T09:56:37;14.53;72.11
64833;HTU21D;51290;45.060;38.948;2023-05-10T09:59:08;14.74;71.51
64833;HTU21D;51290;45.060;38.948;2023-05-10T10:01:34;14.92;70.52
64833;HTU21D;51290;45.060;38.948;2023-05-10T10:04:05;15.01;70.08
64833;HTU21D;51290;45.060;38.948;2023-05-10T10:06:38;15.09;69.92
64833;HTU21D;51290;45.060;38.948;2023-05-10T10:09:08;15.17;69.30
64833;HTU21D;51290;45.060;38.948;2023-05-10T10:11:36;15.24;68.82
64833;HTU21D;51290;45.060;38.948;2023-05-10T10:14:02;15.17;68.91
64833;HTU21D;51290;45.060;38.948;2023-05-10T10:16:32;15.15;69.29
64833;HTU21D;51290;45.060;38.948;2023-05-10T10:18:58;15.27;69.84
64833;HTU21D;51290;45.060;38.948;2023-05-10T10:21:24;15.40;68.94
64833;HTU21D;51290;45.060;38.948;2023-05-10T10:23:51;15.43;68.52
64833;HTU21D;51290;45.060;38.948;2023-05-10T10:26:17;15.38;68.33
64833;HTU21D;51290;45.060;38.948;2023-05-10T10:31:45;15.28;67.97
64833;HTU21D;51290;45.060;38.948;2023-05-10T10:34:25;15.34;68.55
64833;HTU21D;51290;45.060;38.948;2023-05-10T10:36:52;15.44;68.62
64833;HTU21D;51290;45.060;38.948;2023-05-10T10:39:20;15.41;68.00
64833;HTU21D;51290;45.060;38.948;2023-05-10T10:41:53;15.38;68.14
64833;HTU21D;51290;45.060;38.948;2023-05-10T10:47:22;15.49;68.59
64833;HTU21D;51290;45.060;38.948;2023-05-10T10:52:45;15.92;68.64
64833;HTU21D;51290;45.060;38.948;2023-05-10T10:55:17;16.16;68.32
64833;HTU21D;51290;45.060;38.948;2023-05-10T10:57:52;16.29;67.40
64833;HTU21D;51290;45.060;38.948;2023-05-10T11:00:40;16.26;66.37
64833;HTU21D;51290;45.060;38.948;2023-05-10T11:03:08;16.20;66.76
64833;HTU21D;51290;45.060;38.948;2023-05-10T11:05:41;16.13;66.11
64833;HTU21D;51290;45.060;38.948;2023-05-10T11:10:36;15.97;66.10
64833;HTU21D;51290;45.060;38.948;2023-05-10T11:13:05;15.85;65.83
64833;HTU21D;51290;45.060;38.948;2023-05-10T11:15:36;15.84;66.22
64833;HTU21D;51290;45.060;38.948;2023-05-10T11:18:20;15.77;65.95
64833;HTU21D;51290;45.060;38.948;2023-05-10T11:20:56;15.70;65.76
64833;HTU21D;51290;45.060;38.948;2023-05-10T11:23:23;15.62;65.21
64833;HTU21D;51290;45.060;38.948;2023-05-10T11:25:49;15.62;65.80
64833;HTU21D;51290;45.060;38.948;2023-05-10T11:28:18;15.62;65.53
64833;HTU21D;51290;45.060;38.948;2023-05-10T11:30:45;15.59;64.66
64833;HTU21D;51290;45.060;38.948;2023-05-10T11:33:16;15.44;64.37
64833;HTU21D;51290;45.060;38.948;2023-05-10T11:35:43;15.39;65.43
64833;HTU21D;51290;45.060;38.948;2023-05-10T11:38:10;15.44;65.74
64833;HTU21D;51290;45.060;38.948;2023-05-10T11:40:37;15.44;65.11
64833;HTU21D;51290;45.060;38.948;2023-05-10T11:43:05;15.44;65.17
64833;HTU21D;51290;45.060;38.948;2023-05-10T11:45:34;15.54;65.56
64833;HTU21D;51290;45.060;38.948;2023-05-10T11:48:01;15.61;65.09
64833;HTU21D;51290;45.060;38.948;2023-05-10T11:50:28;15.55;64.83
64833;HTU21D;51290;45.060;38.948;2023-05-10T11:52:56;15.56;65.47
64833;HTU21D;51290;45.060;38.948;2023-05-10T11:55:22;15.67;65.44
64833;HTU21D;51290;45.060;38.948;2023-05-10T11:57:55;15.73;65.14
64833;HTU21D;51290;45.060;38.948;2023-05-10T12:00:21;15.75;65.31
64833;HTU21D;51290;45.060;38.948;2023-05-10T12:02:48;15.83;65.55
64833;HTU21D;51290;45.060;38.948;2023-05-10T12:05:15;15.93;65.53
64833;HTU21D;51290;45.060;38.948;2023-05-10T12:07:41;16.07;65.50
64833;HTU21D;51290;45.060;38.948;2023-05-10T12:10:10;16.19;65.21
64833;HTU21D;51290;45.060;38.948;2023-05-10T12:12:44;16.24;64.28
64833;HTU21D;51290;45.060;38.948;2023-05-10T12:15:24;16.26;64.39
64833;HTU21D;51290;45.060;38.948;2023-05-10T12:17:50;16.28;64.69
64833;HTU21D;51290;45.060;38.948;2023-05-10T12:20:24;16.34;64.87
64833;HTU21D;51290;45.060;38.948;2023-05-10T12:22:54;16.47;65.05
64833;HTU21D;51290;45.060;38.948;2023-05-10T12:25:22;16.58;64.59
64833;HTU21D;51290;45.060;38.948;2023-05-10T12:27:53;16.64;64.47
64833;HTU21D;51290;45.060;38.948;2023-05-10T12:30:26;16.60;64.29
64833;HTU21D;51290;45.060;38.948;2023-05-10T12:32:53;16.54;64.53
64833;HTU21D;51290;45.060;38.948;2023-05-10T12:35:19;16.50;64.48
64833;HTU21D;51290;45.060;38.948;2023-05-10T12:37:51;16.46;64.11
64833;HTU21D;51290;45.060;38.948;2023-05-10T12:40:17;16.30;62.77
64833;HTU21D;51290;45.060;38.948;2023-05-10T12:42:43;16.05;62.71
64833;HTU21D;51290;45.060;38.948;2023-05-10T12:45:12;15.82;63.15
64833;HTU21D;51290;45.060;38.948;2023-05-10T12:47:38;15.65;63.29
64833;HTU21D;51290;45.060;38.948;2023-05-10T12:50:05;15.46;63.27
64833;HTU21D;51290;45.060;38.948;2023-05-10T12:52:31;15.26;63.43
64833;HTU21D;51290;45.060;38.948;2023-05-10T12:54:58;15.06;63.52
64833;HTU21D;51290;45.060;38.948;2023-05-10T12:57:25;14.85;63.85
64833;HTU21D;51290;45.060;38.948;2023-05-10T12:59:51;14.70;63.95
64833;HTU21D;51290;45.060;38.948;2023-05-10T13:02:17;14.57;64.27
64833;HTU21D;51290;45.060;38.948;2023-05-10T13:04:47;14.52;64.79
64833;HTU21D;51290;45.060;38.948;2023-05-10T13:07:14;14.52;64.80
64833;HTU21D;51290;45.060;38.948;2023-05-10T13:09:40;14.47;64.63
64833;HTU21D;51290;45.060;38.948;2023-05-10T13:12:06;14.44;64.86
64833;HTU21D;51290;45.060;38.948;2023-05-10T13:14:32;14.37;64.20
64833;HTU21D;51290;45.060;38.948;2023-05-10T13:16:58;14.33;64.53
64833;HTU21D;51290;45.060;38.948;2023-05-10T13:19:24;14.38;64.96
64833;HTU21D;51290;45.060;38.948;2023-05-10T13:21:50;14.44;64.79
64833;HTU21D;51290;45.060;38.948;2023-05-10T13:24:16;14.45;64.34
64833;HTU21D;51290;45.060;38.948;2023-05-10T13:26:43;14.50;64.85
64833;HTU21D;51290;45.060;38.948;2023-05-10T13:29:09;14.54;64.20
64833;HTU21D;51290;45.060;38.948;2023-05-10T13:31:35;14.47;63.12
64833;HTU21D;51290;45.060;38.948;2023-05-10T13:34:01;14.35;63.40
64833;HTU21D;51290;45.060;38.948;2023-05-10T13:36:28;14.29;63.94
64833;HTU21D;51290;45.060;38.948;2023-05-10T13:38:54;14.29;64.13
64833;HTU21D;51290;45.060;38.948;2023-05-10T13:41:20;14.33;64.40
64833;HTU21D;51290;45.060;38.948;2023-05-10T13:43:46;14.43;64.66
64833;HTU21D;51290;45.060;38.948;2023-05-10T13:46:14;14.57;64.37
64833;HTU21D;51290;45.060;38.948;2023-05-10T13:48:40;14.67;64.23
64833;HTU21D;51290;45.060;38.948;2023-05-10T13:51:06;14.75;64.50
64833;HTU21D;51290;45.060;38.948;2023-05-10T13:53:32;14.88;64.55
64833;HTU21D;51290;45.060;38.948;2023-05-10T13:55:58;15.06;64.71
64833;HTU21D;51290;45.060;38.948;2023-05-10T13:58:23;15.17;64.05
64833;HTU21D;51290;45.060;38.948;2023-05-10T14:00:49;15.22;64.08
64833;HTU21D;51290;45.060;38.948;2023-05-10T14:03:16;15.18;64.11
64833;HTU21D;51290;45.060;38.948;2023-05-10T14:05:42;15.22;64.21
64833;HTU21D;51290;45.060;38.948;2023-05-10T14:08:08;15.24;64.04
64833;HTU21D;51290;45.060;38.948;2023-05-10T14:10:35;15.24;63.88
64833;HTU21D;51290;45.060;38.948;2023-05-10T14:13:02;15.28;63.85
64833;HTU21D;51290;45.060;38.948;2023-05-10T14:15:28;15.33;63.98
64833;HTU21D;51290;45.060;38.948;2023-05-10T14:17:54;15.40;63.83
64833;HTU21D;51290;45.060;38.948;2023-05-10T14:20:20;15.42;63.31
64833;HTU21D;51290;45.060;38.948;2023-05-10T14:22:46;15.34;63.34
64833;HTU21D;51290;45.060;38.948;2023-05-10T14:25:13;15.27;63.14
64833;HTU21D;51290;45.060;38.948;2023-05-10T14:27:40;15.15;63.30
64833;HTU21D;51290;45.060;38.948;2023-05-10T14:30:06;15.02;63.24
64833;HTU21D;51290;45.060;38.948;2023-05-10T14:32:32;14.91;63.29
64833;HTU21D;51290;45.060;38.948;2023-05-10T14:34:59;14.82;62.46
64833;HTU21D;51290;45.060;38.948;2023-05-10T14:37:25;14.71;62.73
64833;HTU21D;51290;45.060;38.948;2023-05-10T14:39:51;14.57;61.79
64833;HTU21D;51290;45.060;38.948;2023-05-10T14:42:18;14.37;62.44
64833;HTU21D;51290;45.060;38.948;2023-05-10T14:44:43;14.19;63.08
64833;HTU21D;51290;45.060;38.948;2023-05-10T14:47:09;14.03;63.37
64833;HTU21D;51290;45.060;38.948;2023-05-10T14:49:36;13.89;63.69
64833;HTU21D;51290;45.060;38.948;2023-05-10T14:52:02;13.76;63.73
64833;HTU21D;51290;45.060;38.948;2023-05-10T14:54:28;13.65;64.07
64833;HTU21D;51290;45.060;38.948;2023-05-10T14:56:54;13.54;63.69
64833;HTU21D;51290;45.060;38.948;2023-05-10T14:59:20;13.44;63.74
64833;HTU21D;51290;45.060;38.948;2023-05-10T15:01:46;13.32;64.10
64833;HTU21D;51290;45.060;38.948;2023-05-10T15:04:12;13.21;64.18
64833;HTU21D;51290;45.060;38.948;2023-05-10T15:06:39;13.11;64.24
64833;HTU21D;51290;45.060;38.948;2023-05-10T15:09:05;13.04;64.39
64833;HTU21D;51290;45.060;38.948;2023-05-10T15:11:31;12.96;64.59
64833;HTU21D;51290;45.060;38.948;2023-05-10T15:13:57;12.89;64.76
64833;HTU21D;51290;45.060;38.948;2023-05-10T15:16:23;12.82;64.89
64833;HTU21D;51290;45.060;38.948;2023-05-10T15:18:50;12.77;65.03
64833;HTU21D;51290;45.060;38.948;2023-05-10T15:21:16;12.72;65.10
64833;HTU21D;51290;45.060;38.948;2023-05-10T15:23:42;12.66;64.83
64833;HTU21D;51290;45.060;38.948;2023-05-10T15:26:08;12.59;64.88
64833;HTU21D;51290;45.060;38.948;2023-05-10T15:28:34;12.51;65.10
64833;HTU21D;51290;45.060;38.948;2023-05-10T15:31:00;12.44;65.27
64833;HTU21D;51290;45.060;38.948;2023-05-10T15:33:27;12.37;65.28
64833;HTU21D;51290;45.060;38.948;2023-05-10T15:35:53;12.32;65.31